createdAt,value
2023-03-18T00:00:16.731Z,12.41
2023-03-18T00:02:44.770Z,12.85
2023-03-18T00:05:14.432Z,12.89
2023-03-18T00:07:42.699Z,12.76
2023-03-18T00:10:12.350Z,12.47
2023-03-18T00:12:40.795Z,12.56
2023-03-18T00:15:12.356Z,12.51
2023-03-18T00:17:41.159Z,12.65
2023-03-18T00:20:12.713Z,12.71
2023-03-18T00:22:41.819Z,12.74
2023-03-18T00:25:11.637Z,12.93
2023-03-18T00:27:40.137Z,13.62
2023-03-18T00:30:12.351Z,13.62
2023-03-18T00:32:39.872Z,13.75
2023-03-18T00:35:07.939Z,13.17
2023-03-18T00:37:36.571Z,12.84
2023-03-18T00:40:06.951Z,12.79
2023-03-18T00:42:38.945Z,12.88
2023-03-18T00:45:08.690Z,12.61
2023-03-18T00:47:38.441Z,12.78
2023-03-18T00:50:07.309Z,12.64
2023-03-18T00:52:35.063Z,12.48
2023-03-18T00:55:02.560Z,12.37
2023-03-18T00:57:30.807Z,12.65
2023-03-18T00:59:59.232Z,12.32
2023-03-18T01:02:27.522Z,12.33
2023-03-18T01:04:57.059Z,12.49
2023-03-18T01:07:25.063Z,11.94
2023-03-18T01:09:52.732Z,11.80
2023-03-18T01:12:20.186Z,12.26
2023-03-18T01:14:48.147Z,11.97
2023-03-18T01:17:15.631Z,11.91
2023-03-18T01:19:43.469Z,12.11
2023-03-18T01:22:12.209Z,12.28
2023-03-18T01:24:40.196Z,11.95
2023-03-18T01:27:07.770Z,12.34
2023-03-18T01:29:35.650Z,12.46
2023-03-18T01:32:03.574Z,12.32
2023-03-18T01:34:31.184Z,12.33
2023-03-18T01:36:58.588Z,12.14
2023-03-18T01:39:27.377Z,12.13
2023-03-18T01:41:54.930Z,12.26
2023-03-18T01:44:24.757Z,12.13
2023-03-18T01:46:53.542Z,12.07
2023-03-18T01:49:24.139Z,12.35
2023-03-18T01:51:55.255Z,12.31
2023-03-18T01:54:24.920Z,12.28
2023-03-18T01:56:55.533Z,12.36
2023-03-18T01:59:26.377Z,12.25
2023-03-18T02:01:58.186Z,12.37
2023-03-18T02:04:31.843Z,12.22
2023-03-18T02:07:01.262Z,12.36
2023-03-18T02:09:29.603Z,12.47
2023-03-18T02:11:59.073Z,11.90
2023-03-18T02:14:27.681Z,12.27
2023-03-18T02:17:00.202Z,12.10
2023-03-18T02:19:41.586Z,11.44
2023-03-18T02:22:19.022Z,12.26
2023-03-18T02:24:56.376Z,12.28
2023-03-18T02:27:27.613Z,11.26
2023-03-18T02:29:57.369Z,11.76
2023-03-18T02:32:27.776Z,12.04
2023-03-18T02:34:56.731Z,11.94
2023-03-18T02:37:24.252Z,11.52
2023-03-18T02:39:51.926Z,11.85
2023-03-18T02:42:29.917Z,12.14
2023-03-18T02:44:57.950Z,11.98
2023-03-18T02:47:27.269Z,12.12
2023-03-18T02:49:55.317Z,11.30
2023-03-18T02:52:22.749Z,11.95
2023-03-18T02:54:50.162Z,11.88
2023-03-18T02:57:17.553Z,11.95
2023-03-18T02:59:46.361Z,12.16
2023-03-18T03:02:13.840Z,11.77
2023-03-18T03:04:41.314Z,12.12
2023-03-18T03:07:08.925Z,12.26
2023-03-18T03:09:36.369Z,11.90
2023-03-18T03:12:03.946Z,12.24
2023-03-18T03:14:31.353Z,12.20
2023-03-18T03:17:00.114Z,12.02
2023-03-18T03:19:27.803Z,11.73
2023-03-18T03:21:55.243Z,11.99
2023-03-18T03:24:22.661Z,11.70
2023-03-18T03:26:50.073Z,11.58
2023-03-18T03:29:17.481Z,11.64
2023-03-18T03:31:45.210Z,11.78
2023-03-18T03:34:14.185Z,11.99
2023-03-18T03:36:41.690Z,11.74
2023-03-18T03:39:09.110Z,11.02
2023-03-18T03:41:36.608Z,10.69
2023-03-18T03:44:04.067Z,10.35
2023-03-18T03:46:32.185Z,11.29
2023-03-18T03:48:59.693Z,11.58
2023-03-18T03:51:29.309Z,11.36
2023-03-18T03:53:57.480Z,11.56
2023-03-18T03:56:24.879Z,11.51
2023-03-18T03:58:52.293Z,11.74
2023-03-18T04:01:19.891Z,11.73
2023-03-18T04:03:47.296Z,11.30
2023-03-18T04:06:15.325Z,11.52
2023-03-18T04:08:44.015Z,11.70
2023-03-18T04:11:12.542Z,11.76
2023-03-18T04:13:40.018Z,11.00
2023-03-18T04:16:08.084Z,11.65
2023-03-18T04:18:35.609Z,11.83
2023-03-18T04:21:03.127Z,11.71
2023-03-18T04:23:31.077Z,11.80
2023-03-18T04:26:00.023Z,11.61
2023-03-18T04:28:27.442Z,11.79
2023-03-18T04:30:54.900Z,11.89
2023-03-18T04:33:22.321Z,11.80
2023-03-18T04:35:50.209Z,11.29
2023-03-18T04:38:17.927Z,9.83
2023-03-18T04:40:45.612Z,11.19
2023-03-18T04:43:14.405Z,11.50
2023-03-18T04:45:41.877Z,10.90
2023-03-18T04:48:10.298Z,10.74
2023-03-18T04:50:37.776Z,11.42
2023-03-18T04:53:05.244Z,11.46
2023-03-18T04:55:33.964Z,11.24
2023-03-18T04:58:01.806Z,11.39
2023-03-18T05:00:30.557Z,11.45
2023-03-18T05:02:57.946Z,11.51
2023-03-18T05:05:25.514Z,11.23
2023-03-18T05:07:52.925Z,11.40
2023-03-18T05:10:20.695Z,11.11
2023-03-18T05:12:48.604Z,11.32
2023-03-18T05:15:16.100Z,11.38
2023-03-18T05:17:44.892Z,11.34
2023-03-18T05:20:13.632Z,11.48
2023-03-18T05:22:41.404Z,11.03
2023-03-18T05:25:11.459Z,11.35
2023-03-18T05:27:39.058Z,11.32
2023-03-18T05:30:07.697Z,11.33
2023-03-18T05:32:35.458Z,11.57
2023-03-18T05:35:05.553Z,11.61
2023-03-18T05:37:32.965Z,11.54
2023-03-18T05:40:01.351Z,11.43
2023-03-18T05:42:29.050Z,11.59
2023-03-18T05:44:57.925Z,11.64
2023-03-18T05:47:25.380Z,11.70
2023-03-18T05:49:52.824Z,11.67
2023-03-18T05:52:21.529Z,11.85
2023-03-18T05:54:50.181Z,11.84
2023-03-18T05:57:17.933Z,11.68
2023-03-18T05:59:45.422Z,11.24
2023-03-18T06:02:12.975Z,11.72
2023-03-18T06:04:41.100Z,11.70
2023-03-18T06:07:08.634Z,11.40
2023-03-18T06:09:37.714Z,11.10
2023-03-18T06:12:05.460Z,11.27
2023-03-18T06:14:32.874Z,11.52
2023-03-18T06:17:00.297Z,11.32
2023-03-18T06:19:28.606Z,11.73
2023-03-18T06:21:56.029Z,11.64
2023-03-18T06:24:23.610Z,11.65
2023-03-18T06:30:39.935Z,11.98
2023-03-18T06:33:07.546Z,12.04
2023-03-18T06:35:35.495Z,10.62
2023-03-18T06:38:03.652Z,11.52
2023-03-18T06:40:31.106Z,11.21
2023-03-18T06:42:58.595Z,11.10
2023-03-18T06:45:26.028Z,10.96
2023-03-18T06:47:55.218Z,11.63
2023-03-18T06:50:24.265Z,11.61
2023-03-18T06:52:51.705Z,11.62
2023-03-18T06:55:19.550Z,11.61
2023-03-18T06:57:47.724Z,11.81
2023-03-18T07:00:16.939Z,11.76
2023-03-18T07:02:44.483Z,11.41
2023-03-18T07:05:14.645Z,12.31
2023-03-18T07:07:42.392Z,12.35
2023-03-18T07:10:13.921Z,12.49
2023-03-18T07:12:41.442Z,12.56
2023-03-18T07:15:11.406Z,12.48
2023-03-18T07:17:38.879Z,12.74
2023-03-18T07:20:07.311Z,12.89
2023-03-18T07:22:37.303Z,12.81
2023-03-18T07:25:05.154Z,12.95
2023-03-18T07:27:32.599Z,13.06
2023-03-18T07:30:00.051Z,12.98
2023-03-18T07:32:27.529Z,13.17
2023-03-18T07:34:54.942Z,13.15
2023-03-18T07:37:22.316Z,12.84
2023-03-18T07:39:51.049Z,13.21
2023-03-18T07:42:18.421Z,13.21
2023-03-18T07:44:45.813Z,12.85
2023-03-18T07:47:14.608Z,13.48
2023-03-18T07:49:42.628Z,13.30
2023-03-18T07:52:10.536Z,13.71
2023-03-18T07:54:38.022Z,14.05
2023-03-18T07:57:06.972Z,14.02
2023-03-18T07:59:34.591Z,14.20
2023-03-18T08:02:02.514Z,14.26
2023-03-18T08:04:30.278Z,14.26
2023-03-18T08:06:58.243Z,14.58
2023-03-18T08:09:28.782Z,14.60
2023-03-18T08:11:56.351Z,14.87
2023-03-18T08:14:25.546Z,14.88
2023-03-18T08:16:53.103Z,14.92
2023-03-18T08:19:21.439Z,15.12
2023-03-18T08:21:49.097Z,14.86
2023-03-18T08:24:17.271Z,15.21
2023-03-18T08:26:45.241Z,15.37
2023-03-18T08:29:12.703Z,15.40
2023-03-18T08:31:41.471Z,15.38
2023-03-18T08:34:08.896Z,14.65
2023-03-18T08:36:36.864Z,15.07
2023-03-18T08:39:05.249Z,15.30
2023-03-18T08:41:36.521Z,15.63
2023-03-18T08:44:06.561Z,15.61
2023-03-18T08:46:33.977Z,15.83
2023-03-18T08:49:03.004Z,15.61
2023-03-18T08:51:30.631Z,15.73
2023-03-18T08:53:58.105Z,15.85
2023-03-18T08:56:26.073Z,16.12
2023-03-18T08:58:54.582Z,16.35
2023-03-18T09:01:22.462Z,16.26
2023-03-18T09:03:54.736Z,16.40
2023-03-18T09:06:23.567Z,16.49
2023-03-18T09:08:50.999Z,16.43
2023-03-18T09:11:18.595Z,15.18
2023-03-18T09:14:00.149Z,16.13
2023-03-18T09:16:28.687Z,16.40
2023-03-18T09:18:56.189Z,16.66
2023-03-18T09:21:25.154Z,16.24
2023-03-18T09:23:52.667Z,15.84
2023-03-18T09:26:20.185Z,16.56
2023-03-18T09:28:47.669Z,16.45
2023-03-18T09:31:15.541Z,16.78
2023-03-18T09:33:43.550Z,16.81
2023-03-18T09:36:11.543Z,16.78
2023-03-18T09:38:47.866Z,16.89
2023-03-18T09:41:29.813Z,17.06
2023-03-18T09:44:08.470Z,17.10
2023-03-18T09:46:47.733Z,16.64
2023-03-18T09:49:29.590Z,17.08
2023-03-18T09:52:12.240Z,17.17
2023-03-18T09:54:48.373Z,17.23
2023-03-18T09:57:22.887Z,17.18
2023-03-18T09:59:55.637Z,17.35
2023-03-18T10:02:28.386Z,16.70
2023-03-18T10:04:58.956Z,17.19
2023-03-18T10:07:32.636Z,17.18
2023-03-18T10:10:07.924Z,17.23
2023-03-18T10:12:37.791Z,15.94
2023-03-18T10:15:16.270Z,17.36
2023-03-18T10:17:47.565Z,17.21
2023-03-18T10:20:21.038Z,17.57
2023-03-18T10:22:57.987Z,17.53
2023-03-18T10:25:32.143Z,17.95
2023-03-18T10:28:27.398Z,17.75
2023-03-18T10:31:02.339Z,18.27
2023-03-18T10:33:41.918Z,18.30
2023-03-18T10:36:13.904Z,18.14
2023-03-18T10:38:44.738Z,17.93
2023-03-18T10:41:22.656Z,18.11
2023-03-18T10:43:54.082Z,18.32
2023-03-18T10:46:22.983Z,18.45
2023-03-18T10:48:55.679Z,18.58
2023-03-18T10:51:28.851Z,18.73
2023-03-18T10:54:02.468Z,17.72
2023-03-18T10:56:31.729Z,18.53
2023-03-18T10:58:59.515Z,18.17
2023-03-18T11:01:29.871Z,18.46
2023-03-18T11:04:01.996Z,18.47
2023-03-18T11:06:36.770Z,18.70
2023-03-18T11:09:08.483Z,18.54
2023-03-18T11:11:40.805Z,18.57
2023-03-18T11:14:14.106Z,18.79
2023-03-18T11:16:46.145Z,18.88
2023-03-18T11:19:29.184Z,18.90
2023-03-18T11:22:20.817Z,18.61
2023-03-18T11:25:02.272Z,18.57
2023-03-18T11:27:37.315Z,19.00
2023-03-18T11:30:16.681Z,18.76
2023-03-18T11:32:54.407Z,18.96
2023-03-18T11:35:23.962Z,18.87
2023-03-18T11:37:52.241Z,18.79
2023-03-18T11:40:28.035Z,18.61
2023-03-18T11:42:58.923Z,18.12
2023-03-18T11:45:34.921Z,18.43
2023-03-18T11:48:03.834Z,18.46
2023-03-18T11:50:41.638Z,18.69
2023-03-18T11:53:14.284Z,18.98
2023-03-18T11:55:46.597Z,19.20
2023-03-18T11:58:48.003Z,19.29
2023-03-18T12:01:24.010Z,19.53
2023-03-18T12:04:23.483Z,19.46
2023-03-18T12:07:03.437Z,19.57
2023-03-18T12:09:39.533Z,19.49
2023-03-18T12:12:22.148Z,19.10
2023-03-18T12:15:01.015Z,19.35
2023-03-18T12:17:37.721Z,19.19
2023-03-18T12:20:19.749Z,18.93
2023-03-18T12:23:03.332Z,19.24
2023-03-18T12:25:58.029Z,19.24
2023-03-18T12:28:34.900Z,19.30
2023-03-18T12:31:42.943Z,18.99
2023-03-18T12:34:22.913Z,19.25
2023-03-18T12:37:05.370Z,19.16
2023-03-18T12:40:03.522Z,19.02
2023-03-18T12:42:48.544Z,19.49
2023-03-18T12:45:20.544Z,19.46
2023-03-18T12:47:53.563Z,19.23
2023-03-18T12:50:25.983Z,19.50
2023-03-18T12:52:57.888Z,19.13
2023-03-18T12:55:29.844Z,19.10
2023-03-18T12:58:02.165Z,19.22
2023-03-18T13:00:33.129Z,19.18
2023-03-18T13:03:09.624Z,19.20
2023-03-18T13:05:45.403Z,19.66
2023-03-18T13:08:45.186Z,19.27
2023-03-18T13:11:29.398Z,19.50
2023-03-18T13:14:01.724Z,19.01
2023-03-18T13:16:31.248Z,18.96
2023-03-18T13:19:02.498Z,19.28
2023-03-18T13:21:36.443Z,19.28
2023-03-18T13:24:16.019Z,19.08
2023-03-18T13:26:58.112Z,18.89
2023-03-18T13:29:35.270Z,18.91
2023-03-18T13:32:22.851Z,19.04
2023-03-18T13:35:21.329Z,18.82
2023-03-18T13:38:10.187Z,18.79
2023-03-18T13:40:48.939Z,18.80
2023-03-18T13:43:19.344Z,18.77
2023-03-18T13:45:48.794Z,18.73
2023-03-18T13:48:19.661Z,18.56
2023-03-18T13:50:51.679Z,19.21
2023-03-18T13:53:25.226Z,19.12
2023-03-18T13:56:01.246Z,19.20
2023-03-18T13:58:30.553Z,19.35
2023-03-18T14:01:16.656Z,18.55
2023-03-18T14:03:56.216Z,18.70
2023-03-18T14:06:39.551Z,18.47
2023-03-18T14:09:33.187Z,18.60
2023-03-18T14:12:18.769Z,18.73
2023-03-18T14:14:58.629Z,19.24
2023-03-18T14:17:48.392Z,19.42
2023-03-18T14:20:25.881Z,18.98
2023-03-18T14:22:56.467Z,19.22
2023-03-18T14:25:43.487Z,19.54
2023-03-18T14:28:22.081Z,19.49
2023-03-18T14:31:00.559Z,19.29
2023-03-18T14:33:36.176Z,19.41
2023-03-18T14:36:09.793Z,19.34
2023-03-18T14:38:47.216Z,19.14
2023-03-18T14:41:20.878Z,19.11
2023-03-18T14:43:58.048Z,19.16
2023-03-18T14:46:32.945Z,19.30
2023-03-18T14:49:01.347Z,19.50
2023-03-18T14:51:32.293Z,19.64
2023-03-18T14:54:06.037Z,19.60
2023-03-18T14:56:40.457Z,19.86
2023-03-18T14:59:08.725Z,19.43
2023-03-18T15:01:38.705Z,19.18
2023-03-18T15:04:09.339Z,19.44
2023-03-18T15:06:41.271Z,19.37
2023-03-18T15:09:16.467Z,18.90
2023-03-18T15:11:45.826Z,19.24
2023-03-18T15:14:14.144Z,19.32
2023-03-18T15:16:41.582Z,19.43
2023-03-18T15:19:12.444Z,19.11
2023-03-18T15:21:40.433Z,18.90
2023-03-18T15:24:10.588Z,19.08
2023-03-18T15:26:39.872Z,19.11
2023-03-18T15:29:26.647Z,19.37
2023-03-18T15:31:54.620Z,19.22
2023-03-18T15:34:24.160Z,19.14
2023-03-18T15:36:56.779Z,19.15
2023-03-18T15:39:33.965Z,18.95
2023-03-18T15:42:02.599Z,19.25
2023-03-18T15:44:32.165Z,19.05
2023-03-18T15:47:07.477Z,19.02
2023-03-18T15:49:49.935Z,18.86
2023-03-18T15:52:18.149Z,18.92
2023-03-18T15:54:49.050Z,18.85
2023-03-18T15:57:26.975Z,18.66
2023-03-18T15:59:54.878Z,18.64
2023-03-18T16:02:22.681Z,18.47
2023-03-18T16:04:50.370Z,18.64
2023-03-18T16:07:22.102Z,18.70
2023-03-18T16:09:51.289Z,18.59
2023-03-18T16:12:20.385Z,19.21
2023-03-18T16:14:51.422Z,19.11
2023-03-18T16:17:22.190Z,19.18
2023-03-18T16:19:54.109Z,18.93
2023-03-18T16:22:22.029Z,18.84
2023-03-18T16:24:51.073Z,18.83
2023-03-18T16:27:29.828Z,19.30
2023-03-18T16:29:57.290Z,19.08
2023-03-18T16:32:24.757Z,18.96
2023-03-18T16:34:52.161Z,19.34
2023-03-18T16:37:23.685Z,18.91
2023-03-18T16:39:54.552Z,18.76
2023-03-18T16:42:23.616Z,18.73
2023-03-18T16:44:51.946Z,18.62
2023-03-18T16:47:22.633Z,18.83
2023-03-18T16:49:51.285Z,18.64
2023-03-18T16:52:19.248Z,18.75
2023-03-18T16:54:46.682Z,18.46
2023-03-18T16:57:20.140Z,18.34
2023-03-18T16:59:50.616Z,18.69
2023-03-18T17:02:31.532Z,18.50
2023-03-18T17:04:59.478Z,18.45
2023-03-18T17:07:27.396Z,18.62
2023-03-18T17:09:54.824Z,18.53
2023-03-18T17:12:26.189Z,18.62
2023-03-18T17:14:56.221Z,18.48
2023-03-18T17:17:29.389Z,18.46
2023-03-18T17:19:57.852Z,18.50
2023-03-18T17:22:27.791Z,18.36
2023-03-18T17:24:55.242Z,18.44
2023-03-18T17:27:27.027Z,18.31
2023-03-18T17:29:54.662Z,18.34
2023-03-18T17:32:22.556Z,18.17
2023-03-18T17:34:51.676Z,18.01
2023-03-18T17:37:19.267Z,17.85
2023-03-18T17:39:46.741Z,17.89
2023-03-18T17:42:28.488Z,17.96
2023-03-18T17:44:58.300Z,17.97
2023-03-18T17:47:26.290Z,17.95
2023-03-18T17:49:54.745Z,18.07
2023-03-18T17:52:23.890Z,17.99
2023-03-18T17:54:51.789Z,18.02
2023-03-18T17:57:19.307Z,18.07
2023-03-18T17:59:48.586Z,18.04
2023-03-18T18:02:18.338Z,17.87
2023-03-18T18:04:45.927Z,18.10
2023-03-18T18:07:17.951Z,17.97
2023-03-18T18:09:46.030Z,17.69
2023-03-18T18:12:18.149Z,17.93
2023-03-18T18:14:45.896Z,17.84
2023-03-18T18:17:16.031Z,17.70
2023-03-18T18:19:43.868Z,17.61
2023-03-18T18:22:17.924Z,17.63
2023-03-18T18:24:46.960Z,17.67
2023-03-18T18:27:15.442Z,17.70
2023-03-18T18:29:43.472Z,17.60
2023-03-18T18:32:11.028Z,17.61
2023-03-18T18:34:39.804Z,17.49
2023-03-18T18:37:07.782Z,17.37
2023-03-18T18:39:35.209Z,17.41
2023-03-18T18:42:04.018Z,17.41
2023-03-18T18:44:31.725Z,17.33
2023-03-18T18:46:59.968Z,17.24
2023-03-18T18:49:28.788Z,17.21
2023-03-18T18:51:57.559Z,17.26
2023-03-18T18:54:25.869Z,17.32
2023-03-18T18:56:53.834Z,17.46
2023-03-18T18:59:24.332Z,17.39
2023-03-18T19:01:52.201Z,17.46
2023-03-18T19:04:21.839Z,17.46
2023-03-18T19:06:50.843Z,17.31
2023-03-18T19:09:21.916Z,17.38
2023-03-18T19:11:50.072Z,17.45
2023-03-18T19:14:21.796Z,17.17
2023-03-18T19:16:49.848Z,17.30
2023-03-18T19:19:19.814Z,17.30
2023-03-18T19:21:47.372Z,17.20
2023-03-18T19:24:27.240Z,17.18
2023-03-18T19:26:56.240Z,17.18
2023-03-18T19:29:23.805Z,17.11
2023-03-18T19:31:51.626Z,17.07
2023-03-18T19:34:20.418Z,17.29
2023-03-18T19:36:50.053Z,17.19
2023-03-18T19:39:19.619Z,17.17
2023-03-18T19:41:49.137Z,17.19
2023-03-18T19:44:18.819Z,17.13
2023-03-18T19:46:47.521Z,17.14
2023-03-18T19:49:20.276Z,16.94
2023-03-18T19:51:49.683Z,17.11
2023-03-18T19:54:27.073Z,16.96
2023-03-18T19:56:57.152Z,16.42
2023-03-18T19:59:33.569Z,16.07
2023-03-18T20:02:03.708Z,16.48
2023-03-18T20:04:31.460Z,16.44
2023-03-18T20:06:58.926Z,16.58
2023-03-18T20:09:26.352Z,16.73
2023-03-18T20:12:04.654Z,16.91
2023-03-18T20:14:37.977Z,16.44
2023-03-18T20:17:27.815Z,16.77
2023-03-18T20:19:55.327Z,16.96
2023-03-18T20:22:24.815Z,16.85
2023-03-18T20:24:52.328Z,16.79
2023-03-18T20:27:21.832Z,16.78
2023-03-18T20:29:49.558Z,16.85
2023-03-18T20:32:16.979Z,16.88
2023-03-18T20:34:46.189Z,16.51
2023-03-18T20:37:25.003Z,16.25
2023-03-18T20:39:53.099Z,16.63
2023-03-18T20:42:21.971Z,16.76
2023-03-18T20:44:49.366Z,16.54
2023-03-18T20:47:16.751Z,16.66
2023-03-18T20:49:45.654Z,16.49
2023-03-18T20:52:25.859Z,16.64
2023-03-18T20:54:53.509Z,16.34
2023-03-18T20:57:22.444Z,15.88
2023-03-18T20:59:50.356Z,16.35
2023-03-18T21:02:29.965Z,16.37
2023-03-18T21:04:58.164Z,16.28
2023-03-18T21:07:26.622Z,16.28
2023-03-18T21:09:54.497Z,16.09
2023-03-18T21:12:23.409Z,16.21
2023-03-18T21:14:51.176Z,15.99
2023-03-18T21:17:20.402Z,15.99
2023-03-18T21:19:48.255Z,15.91
2023-03-18T21:22:21.817Z,15.99
2023-03-18T21:24:49.721Z,15.99
2023-03-18T21:27:22.692Z,15.44
2023-03-18T21:29:52.807Z,15.80
2023-03-18T21:32:23.041Z,15.77
2023-03-18T21:34:51.343Z,15.60
2023-03-18T21:37:20.708Z,15.71
2023-03-18T21:39:48.151Z,15.63
2023-03-18T21:42:22.280Z,15.63
2023-03-18T21:44:51.484Z,15.39
2023-03-18T21:47:20.914Z,15.31
2023-03-18T21:49:48.958Z,15.38
2023-03-18T21:52:23.322Z,15.13
2023-03-18T21:54:50.740Z,15.37
2023-03-18T21:57:24.878Z,15.29
2023-03-18T21:59:58.928Z,15.50
2023-03-18T22:02:32.702Z,14.76
2023-03-18T22:05:15.817Z,14.70
2023-03-18T22:07:49.945Z,15.16
2023-03-18T22:10:22.640Z,14.66
2023-03-18T22:12:55.559Z,14.74
2023-03-18T22:15:42.262Z,15.09
2023-03-18T22:18:12.440Z,15.10
2023-03-18T22:20:50.003Z,15.09
2023-03-18T22:23:23.071Z,14.97
2023-03-18T22:25:58.779Z,14.98
2023-03-18T22:28:38.744Z,14.88
2023-03-18T22:31:22.728Z,14.95
2023-03-18T22:33:54.619Z,14.87
2023-03-18T22:36:26.362Z,14.95
2023-03-18T22:39:01.362Z,15.07
2023-03-18T22:41:30.611Z,14.78
2023-03-18T22:44:08.002Z,15.04
2023-03-18T22:46:49.917Z,14.74
2023-03-18T22:49:20.536Z,14.89
2023-03-18T22:51:51.415Z,15.02
2023-03-18T22:54:34.840Z,14.88
2023-03-18T22:57:05.882Z,14.83
2023-03-18T22:59:34.121Z,15.00
2023-03-18T23:02:04.067Z,15.08
2023-03-18T23:04:32.283Z,14.94
2023-03-18T23:07:03.219Z,15.01
2023-03-18T23:09:50.413Z,14.91
2023-03-18T23:12:27.370Z,14.96
2023-03-18T23:14:56.368Z,14.66
2023-03-18T23:17:29.404Z,14.73
2023-03-18T23:20:02.889Z,14.67
2023-03-18T23:22:47.668Z,14.67
2023-03-18T23:25:19.447Z,14.43
2023-03-18T23:27:59.922Z,14.41
2023-03-18T23:30:33.068Z,14.48
2023-03-18T23:33:16.930Z,14.55
2023-03-18T23:36:10.564Z,14.36
2023-03-18T23:38:54.000Z,14.39
2023-03-18T23:41:25.090Z,14.37
2023-03-18T23:44:03.863Z,13.88
2023-03-18T23:46:45.292Z,14.19
2023-03-18T23:49:18.248Z,14.16
2023-03-18T23:51:51.796Z,13.97
2023-03-18T23:54:30.560Z,14.16
2023-03-18T23:56:58.167Z,14.17
2023-03-18T23:59:25.830Z,14.22
